Time;durP1;ratioP1;P1;durP2;ratioP2;P2;SDS_P1;SDS_P2;PMS_P1;PMS_P2;Temp;Humidity;BMP_temperature;BMP_pressure;BME280_temperature;BME280_humidity;BME280_pressure;Samples;Min_cycle;Max_cycle;Signal;HPM_P1;HPM_P2
2023/12/13 00:01:39;;;;;;;40.03;26.48;;;8.00;99.90;;;;;;5117184;27;20051;-62
2023/12/13 00:04:05;;;;;;;38.33;25.45;;;8.00;99.90;;;;;;5117274;27;20052;-62
2023/12/13 00:06:31;;;;;;;42.42;27.17;;;8.00;99.90;;;;;;5116181;27;20050;-62
2023/12/13 00:08:57;;;;;;;42.35;26.42;;;8.00;99.90;;;;;;5116811;27;20035;-62
2023/12/13 00:11:23;;;;;;;49.85;28.40;;;7.90;99.90;;;;;;5116872;27;20124;-62
2023/12/13 00:13:48;;;;;;;39.42;28.67;;;8.00;99.90;;;;;;5125313;27;20035;-62
2023/12/13 00:16:15;;;;;;;39.83;26.38;;;8.00;99.90;;;;;;5133616;27;20047;-62
2023/12/13 00:18:41;;;;;;;34.65;24.45;;;8.00;99.90;;;;;;5131911;27;20084;-62
2023/12/13 00:21:08;;;;;;;54.90;28.60;;;7.90;99.90;;;;;;5116683;27;20039;-62
2023/12/13 00:23:34;;;;;;;38.90;26.23;;;8.00;99.90;;;;;;5116920;27;20060;-62
2023/12/13 00:26:00;;;;;;;49.08;28.70;;;7.90;99.90;;;;;;5116923;27;20427;-62
2023/12/13 00:28:25;;;;;;;47.50;29.50;;;7.90;99.90;;;;;;5116072;27;20034;-62
2023/12/13 00:30:51;;;;;;;36.78;24.05;;;7.90;99.90;;;;;;5098830;27;20476;-62
2023/12/13 00:33:17;;;;;;;46.22;27.48;;;7.90;99.90;;;;;;5134245;27;20039;-62
2023/12/13 00:35:43;;;;;;;42.15;25.73;;;7.90;99.90;;;;;;5118445;27;20063;-62
2023/12/13 00:38:09;;;;;;;49.70;30.10;;;7.90;99.90;;;;;;5133573;27;20035;-62
2023/12/13 00:40:34;;;;;;;32.25;20.23;;;7.90;99.90;;;;;;5115934;27;20046;-62
2023/12/13 00:43:01;;;;;;;46.95;25.08;;;7.90;99.90;;;;;;5116878;27;20396;-62
2023/12/13 00:45:27;;;;;;;33.42;18.67;;;7.90;99.90;;;;;;5115772;27;20495;-62
2023/12/13 00:47:54;;;;;;;33.90;20.42;;;7.90;99.90;;;;;;5115515;27;20042;-63
2023/12/13 00:50:20;;;;;;;35.72;20.75;;;7.90;99.90;;;;;;5134315;27;20421;-62
2023/12/13 00:52:45;;;;;;;29.95;18.80;;;8.00;99.90;;;;;;5115911;27;20136;-62
2023/12/13 00:55:11;;;;;;;40.33;25.80;;;7.90;99.90;;;;;;5133653;27;20088;-62
2023/12/13 00:57:37;;;;;;;35.85;19.65;;;7.90;99.90;;;;;;5134182;27;20096;-62
2023/12/13 01:00:02;;;;;;;26.95;16.85;;;7.80;99.90;;;;;;5116042;27;20059;-62
2023/12/13 01:02:28;;;;;;;31.27;18.40;;;7.90;99.90;;;;;;5103151;27;20127;-62
2023/12/13 01:04:54;;;;;;;38.83;20.05;;;7.80;99.90;;;;;;5120953;27;20075;-62
2023/12/13 01:07:19;;;;;;;37.92;20.70;;;7.80;99.90;;;;;;5115910;27;20396;-61
2023/12/13 01:09:45;;;;;;;30.92;18.30;;;7.90;99.90;;;;;;5115165;27;20042;-62
2023/12/13 01:12:13;;;;;;;35.97;19.35;;;7.80;99.90;;;;;;5133912;27;20110;-62
2023/12/13 01:14:39;;;;;;;40.72;20.45;;;7.80;99.90;;;;;;5099033;27;20395;-62
2023/12/13 01:17:05;;;;;;;26.70;16.08;;;7.80;99.90;;;;;;5098063;27;20043;-62
2023/12/13 01:19:31;;;;;;;25.27;16.25;;;7.80;99.90;;;;;;5115268;27;20046;-62
2023/12/13 01:21:57;;;;;;;28.45;17.25;;;7.90;99.90;;;;;;5115931;27;20108;-62
2023/12/13 01:24:22;;;;;;;28.35;16.90;;;7.80;99.90;;;;;;5098008;27;20027;-62
2023/12/13 01:26:48;;;;;;;30.42;17.65;;;7.90;99.90;;;;;;5115057;27;20063;-62
2023/12/13 01:29:14;;;;;;;29.63;16.52;;;7.80;99.90;;;;;;5098575;27;20035;-62
2023/12/13 01:31:40;;;;;;;25.08;15.93;;;7.80;99.90;;;;;;5114918;27;20046;-62
2023/12/13 01:34:06;;;;;;;28.05;16.80;;;7.80;99.90;;;;;;5115991;27;20045;-62
2023/12/13 01:36:32;;;;;;;22.98;14.77;;;7.80;99.90;;;;;;5114549;27;20122;-62
2023/12/13 01:38:58;;;;;;;23.92;16.00;;;7.90;99.90;;;;;;5131883;27;20563;-62
2023/12/13 01:41:24;;;;;;;29.67;16.65;;;7.80;99.90;;;;;;5132109;27;20051;-62
2023/12/13 01:43:50;;;;;;;24.25;15.23;;;7.80;99.90;;;;;;5131959;27;20043;-62
2023/12/13 01:46:17;;;;;;;21.70;13.95;;;7.90;99.90;;;;;;5133541;27;20046;-62
2023/12/13 01:48:44;;;;;;;23.45;15.10;;;7.90;99.90;;;;;;5122170;27;20081;-62
2023/12/13 01:51:11;;;;;;;22.23;14.38;;;7.90;99.90;;;;;;5123097;27;20054;-62
2023/12/13 01:53:39;;;;;;;25.40;15.85;;;7.90;99.90;;;;;;5131990;27;20041;-62
2023/12/13 01:56:07;;;;;;;28.70;16.17;;;7.90;99.90;;;;;;5115309;27;20043;-62
2023/12/13 01:58:36;;;;;;;19.40;13.57;;;7.90;99.90;;;;;;5123645;27;20050;-62
2023/12/13 02:01:03;;;;;;;28.67;17.20;;;7.90;99.90;;;;;;5114700;27;20495;-62
2023/12/13 02:03:29;;;;;;;25.00;15.88;;;8.00;99.90;;;;;;5133098;27;20091;-62
2023/12/13 02:05:56;;;;;;;23.23;14.57;;;8.00;99.90;;;;;;5097466;27;20043;-62
2023/12/13 02:08:22;;;;;;;21.38;15.02;;;7.90;99.90;;;;;;5114569;27;20050;-62
2023/12/13 02:10:48;;;;;;;25.90;15.88;;;8.00;99.90;;;;;;5114520;28;20046;-62
2023/12/13 02:13:15;;;;;;;23.85;15.65;;;7.90;99.90;;;;;;5114072;27;20053;-62
2023/12/13 02:15:43;;;;;;;22.60;14.60;;;7.90;99.90;;;;;;5126123;27;20043;-62
2023/12/13 02:18:09;;;;;;;20.50;15.13;;;8.00;99.90;;;;;;5131909;27;20058;-62
2023/12/13 02:20:35;;;;;;;29.15;16.17;;;8.00;99.90;;;;;;5131127;27;20053;-62
2023/12/13 02:23:02;;;;;;;27.80;15.73;;;7.90;99.90;;;;;;5104583;28;20076;-62
2023/12/13 02:25:42;;;;;;;25.27;15.57;;;8.00;99.90;;;;;;5114634;28;20066;-62
2023/12/13 02:28:08;;;;;;;25.55;16.40;;;7.90;99.90;;;;;;5128069;28;20035;-63
2023/12/13 02:30:34;;;;;;;29.20;17.25;;;8.00;99.90;;;;;;5127941;28;20031;-62
2023/12/13 02:33:00;;;;;;;29.77;17.27;;;7.90;99.90;;;;;;5114197;28;20101;-62
2023/12/13 02:35:26;;;;;;;26.20;17.33;;;7.90;99.90;;;;;;5114208;28;20035;-62
2023/12/13 02:37:52;;;;;;;38.30;20.35;;;7.90;99.90;;;;;;5114548;28;20118;-62
2023/12/13 02:40:18;;;;;;;31.75;18.70;;;7.90;99.90;;;;;;5113893;28;20047;-62
2023/12/13 02:42:45;;;;;;;29.70;17.45;;;8.00;99.90;;;;;;5113887;28;20049;-62
2023/12/13 02:45:13;;;;;;;28.80;17.00;;;7.90;99.90;;;;;;5113988;28;20479;-62
2023/12/13 02:47:41;;;;;;;33.25;18.02;;;7.90;99.90;;;;;;5113711;28;20139;-62
2023/12/13 02:50:11;;;;;;;26.45;17.25;;;7.90;99.90;;;;;;5114653;28;20054;-62
2023/12/13 02:52:37;;;;;;;28.92;17.02;;;8.00;99.90;;;;;;5128888;28;20134;-62
2023/12/13 02:55:04;;;;;;;33.63;19.60;;;7.90;99.90;;;;;;5131229;28;20047;-62
2023/12/13 02:57:29;;;;;;;32.42;18.65;;;8.00;99.90;;;;;;5116742;28;20082;-62
2023/12/13 02:59:55;;;;;;;33.67;19.35;;;7.90;99.90;;;;;;5110902;28;20083;-62
2023/12/13 03:02:21;;;;;;;41.47;22.83;;;7.90;99.90;;;;;;5110076;28;20126;-62
2023/12/13 03:04:46;;;;;;;36.95;20.70;;;7.90;99.90;;;;;;5110867;28;20036;-62
2023/12/13 03:07:12;;;;;;;30.60;19.67;;;8.00;99.90;;;;;;5114822;28;20047;-62
2023/12/13 03:09:39;;;;;;;28.70;18.17;;;7.90;99.90;;;;;;5114139;28;20074;-62
2023/12/13 03:12:06;;;;;;;31.80;20.00;;;7.90;99.90;;;;;;5115857;28;20035;-62
2023/12/13 03:14:31;;;;;;;38.90;23.60;;;7.90;99.90;;;;;;5113977;28;20044;-62
2023/12/13 03:16:57;;;;;;;30.17;18.60;;;7.90;99.90;;;;;;5114380;28;20114;-62
2023/12/13 03:19:23;;;;;;;27.20;16.42;;;8.00;99.90;;;;;;5114229;28;20458;-62
2023/12/13 03:21:49;;;;;;;34.17;20.83;;;8.00;99.90;;;;;;5114307;28;20449;-63
2023/12/13 03:24:14;;;;;;;34.97;20.83;;;8.00;99.90;;;;;;5113657;28;20377;-62
2023/12/13 03:26:40;;;;;;;29.15;19.52;;;7.90;99.90;;;;;;5113513;28;20404;-62
2023/12/13 03:29:06;;;;;;;36.85;21.65;;;7.90;99.90;;;;;;5097153;28;20123;-62
2023/12/13 03:31:31;;;;;;;38.25;21.55;;;8.00;99.90;;;;;;5114086;28;20039;-62
2023/12/13 03:33:57;;;;;;;46.95;25.98;;;7.90;99.90;;;;;;5114367;28;20476;-63
2023/12/13 03:36:23;;;;;;;28.13;17.45;;;7.90;99.90;;;;;;5113395;28;20047;-63
2023/12/13 03:38:49;;;;;;;33.65;18.20;;;7.90;99.90;;;;;;5113662;28;20400;-62
2023/12/13 03:41:14;;;;;;;28.70;16.92;;;7.90;99.90;;;;;;5113881;28;20883;-62
2023/12/13 03:43:40;;;;;;;30.17;18.67;;;7.80;99.90;;;;;;5113827;28;20039;-62
2023/12/13 03:46:06;;;;;;;39.85;22.98;;;7.90;99.90;;;;;;5114134;28;20051;-63
2023/12/13 03:48:32;;;;;;;24.92;16.38;;;7.80;99.90;;;;;;5096787;28;20122;-63
2023/12/13 03:50:58;;;;;;;32.08;19.90;;;7.90;99.90;;;;;;5096580;28;20079;-63
2023/12/13 03:53:23;;;;;;;26.70;18.58;;;7.90;99.90;;;;;;5112843;28;20050;-62
2023/12/13 03:55:49;;;;;;;29.45;18.65;;;7.80;99.90;;;;;;5114040;28;20424;-62
2023/12/13 03:58:15;;;;;;;31.75;18.63;;;7.80;99.90;;;;;;5113268;28;20107;-62
2023/12/13 04:00:41;;;;;;;29.02;18.15;;;7.90;99.90;;;;;;5113505;28;20489;-62
2023/12/13 04:03:07;;;;;;;37.25;19.38;;;7.90;99.90;;;;;;5113871;28;20498;-62
2023/12/13 04:05:33;;;;;;;31.88;19.15;;;7.90;99.90;;;;;;5113128;28;20396;-62
2023/12/13 04:07:58;;;;;;;31.05;18.98;;;7.90;99.90;;;;;;5113923;28;20464;-62
2023/12/13 04:10:26;;;;;;;22.85;14.32;;;7.90;99.90;;;;;;5113770;28;20480;-62
2023/12/13 04:12:52;;;;;;;33.53;19.20;;;7.90;99.90;;;;;;5112994;28;20050;-62
2023/12/13 04:15:18;;;;;;;28.08;17.05;;;7.90;99.90;;;;;;5113069;28;20047;-62
2023/12/13 04:17:43;;;;;;;27.38;15.82;;;7.80;99.90;;;;;;5112492;28;20511;-63
2023/12/13 04:20:10;;;;;;;24.30;16.52;;;7.80;99.90;;;;;;5112826;28;20067;-62
2023/12/13 04:22:36;;;;;;;24.92;17.13;;;7.80;99.90;;;;;;5113432;28;20400;-62
2023/12/13 04:25:02;;;;;;;29.90;17.33;;;7.90;99.90;;;;;;5113693;28;20115;-62
2023/12/13 04:27:28;;;;;;;28.73;16.75;;;7.90;99.90;;;;;;5112480;28;20539;-62
2023/12/13 04:29:54;;;;;;;23.90;15.18;;;7.80;99.90;;;;;;5113178;28;20076;-62
2023/12/13 04:32:19;;;;;;;26.80;15.15;;;7.90;99.90;;;;;;5112967;28;20073;-62
2023/12/13 04:34:45;;;;;;;25.63;15.65;;;7.90;99.90;;;;;;5112916;28;20122;-62
2023/12/13 04:37:11;;;;;;;24.50;16.08;;;7.90;99.90;;;;;;5112792;28;20054;-62
2023/12/13 04:39:37;;;;;;;28.02;16.45;;;7.80;99.90;;;;;;5112235;28;20206;-62
2023/12/13 04:42:03;;;;;;;24.25;16.13;;;7.90;99.90;;;;;;5113412;28;20043;-62
2023/12/13 04:44:30;;;;;;;27.65;17.05;;;7.80;99.90;;;;;;5113228;28;20027;-62
2023/12/13 04:46:57;;;;;;;26.70;15.85;;;7.80;99.90;;;;;;5112868;28;20046;-63
2023/12/13 04:49:23;;;;;;;25.45;16.05;;;7.80;99.90;;;;;;5112918;28;20414;-63
2023/12/13 04:51:48;;;;;;;23.23;15.50;;;7.80;99.90;;;;;;5112250;28;20088;-63
2023/12/13 04:54:15;;;;;;;20.33;13.63;;;7.90;99.90;;;;;;5112114;28;20082;-63
2023/12/13 04:56:40;;;;;;;22.02;14.75;;;7.90;99.90;;;;;;5112813;28;20408;-62
2023/12/13 04:59:06;;;;;;;23.55;13.98;;;7.90;99.90;;;;;;5113376;28;20047;-63
2023/12/13 05:01:32;;;;;;;25.05;15.35;;;7.80;99.90;;;;;;5122845;27;20118;-63
2023/12/13 05:03:58;;;;;;;19.75;14.80;;;7.80;99.90;;;;;;5132811;27;20503;-63
2023/12/13 05:06:24;;;;;;;22.65;14.05;;;7.90;99.90;;;;;;5131456;27;20054;-62
2023/12/13 05:08:49;;;;;;;25.77;17.15;;;7.80;99.90;;;;;;5132402;27;20062;-63
2023/12/13 05:11:15;;;;;;;25.13;15.80;;;7.90;99.90;;;;;;5115502;27;20042;-63
2023/12/13 05:13:41;;;;;;;24.60;15.77;;;7.90;99.90;;;;;;5129334;27;20031;-63
2023/12/13 05:16:08;;;;;;;21.52;15.77;;;7.90;99.90;;;;;;5098639;27;20039;-63
2023/12/13 05:18:34;;;;;;;19.73;13.63;;;7.80;99.90;;;;;;5115655;27;20097;-63
2023/12/13 05:21:01;;;;;;;26.42;15.50;;;7.90;99.90;;;;;;5115742;27;20039;-63
2023/12/13 05:23:27;;;;;;;24.33;15.32;;;7.90;99.90;;;;;;5114894;27;20038;-63
2023/12/13 05:25:54;;;;;;;23.55;15.02;;;7.80;99.90;;;;;;5114966;27;20518;-63
2023/12/13 05:28:20;;;;;;;25.50;16.42;;;7.80;99.90;;;;;;5132289;27;20365;-63
2023/12/13 05:30:45;;;;;;;26.38;16.85;;;7.80;99.90;;;;;;5131885;27;20088;-63
2023/12/13 05:33:12;;;;;;;24.95;16.95;;;7.80;99.90;;;;;;5115395;27;20058;-63
2023/12/13 05:35:38;;;;;;;22.98;16.33;;;7.80;99.90;;;;;;5114910;27;20384;-63
2023/12/13 05:38:04;;;;;;;28.88;18.95;;;7.80;99.90;;;;;;5115529;27;20069;-63
2023/12/13 05:40:31;;;;;;;23.90;16.15;;;7.90;99.90;;;;;;5116160;27;20471;-63
2023/12/13 05:42:57;;;;;;;24.33;16.48;;;7.90;99.90;;;;;;5114988;27;20118;-63
2023/12/13 05:45:23;;;;;;;25.02;17.23;;;7.90;99.90;;;;;;5114981;27;20178;-63
2023/12/13 05:47:49;;;;;;;23.50;15.90;;;7.90;99.90;;;;;;5115452;27;20080;-63
2023/12/13 05:50:16;;;;;;;24.67;17.15;;;7.90;99.90;;;;;;5126988;27;20035;-63
2023/12/13 05:52:42;;;;;;;23.60;15.55;;;7.80;99.90;;;;;;5131899;27;20565;-63
2023/12/13 05:55:08;;;;;;;24.25;16.17;;;7.90;99.90;;;;;;5133512;27;20045;-63
2023/12/13 05:57:33;;;;;;;25.75;16.67;;;7.80;99.90;;;;;;5131438;27;20047;-63
2023/12/13 05:59:59;;;;;;;23.42;15.10;;;7.80;99.90;;;;;;5131871;27;20058;-63
2023/12/13 06:02:25;;;;;;;24.67;17.38;;;7.80;99.90;;;;;;5115108;27;20038;-63
2023/12/13 06:04:54;;;;;;;25.08;16.52;;;7.80;99.90;;;;;;5096813;27;20073;-63
2023/12/13 06:07:19;;;;;;;32.50;16.77;;;7.90;99.90;;;;;;5097866;28;20042;-63
2023/12/13 06:09:46;;;;;;;28.88;17.63;;;7.90;99.90;;;;;;5114810;27;20556;-63
2023/12/13 06:12:13;;;;;;;26.10;16.83;;;7.90;99.90;;;;;;5114104;27;20078;-62
2023/12/13 06:14:39;;;;;;;24.73;16.98;;;7.80;99.90;;;;;;5114725;27;20039;-62
2023/12/13 06:17:04;;;;;;;24.10;16.42;;;7.90;99.90;;;;;;5133168;27;20122;-63
2023/12/13 06:19:32;;;;;;;27.80;18.33;;;7.90;99.90;;;;;;5113659;27;20084;-63
2023/12/13 06:21:57;;;;;;;27.65;16.48;;;7.90;99.90;;;;;;5104827;28;20042;-63
2023/12/13 06:24:23;;;;;;;31.88;18.67;;;7.90;99.90;;;;;;5131496;27;20049;-63
2023/12/13 06:26:49;;;;;;;29.75;19.77;;;7.80;99.90;;;;;;5114232;28;20043;-63
2023/12/13 06:29:16;;;;;;;27.02;16.92;;;7.80;99.90;;;;;;5114286;28;20075;-63
2023/12/13 06:31:41;;;;;;;29.83;19.52;;;7.90;99.90;;;;;;5114181;28;20043;-63
2023/12/13 06:34:07;;;;;;;32.10;20.92;;;7.90;99.90;;;;;;5114172;28;20046;-63
2023/12/13 06:36:33;;;;;;;30.45;19.55;;;7.80;99.90;;;;;;5114164;28;20613;-63
2023/12/13 06:39:00;;;;;;;27.67;19.60;;;7.90;99.90;;;;;;5115500;27;20041;-63
2023/12/13 06:41:26;;;;;;;26.85;20.45;;;7.90;99.90;;;;;;5117645;27;20047;-63
2023/12/13 06:43:52;;;;;;;26.35;18.92;;;7.80;99.90;;;;;;5118836;27;20062;-63
2023/12/13 06:46:17;;;;;;;27.02;17.95;;;7.80;99.90;;;;;;5118167;27;20432;-63
2023/12/13 06:48:43;;;;;;;25.20;17.73;;;7.80;99.90;;;;;;5118080;27;20092;-63
2023/12/13 06:51:09;;;;;;;24.23;17.05;;;7.80;99.90;;;;;;5118428;27;20039;-63
2023/12/13 06:53:39;;;;;;;27.63;19.05;;;7.80;99.90;;;;;;5117818;27;20039;-63
2023/12/13 06:56:05;;;;;;;26.33;17.98;;;7.80;99.90;;;;;;5118364;27;20047;-63
2023/12/13 06:58:31;;;;;;;29.67;20.83;;;7.90;99.90;;;;;;5117909;27;20035;-63
2023/12/13 07:00:56;;;;;;;29.40;19.27;;;7.80;99.90;;;;;;5118222;27;20099;-63
2023/12/13 07:03:22;;;;;;;29.15;20.17;;;7.80;99.90;;;;;;5117980;27;20439;-63
2023/12/13 07:05:48;;;;;;;29.35;19.67;;;7.80;99.90;;;;;;5118147;27;20126;-63
2023/12/13 07:08:14;;;;;;;26.45;18.50;;;7.80;99.90;;;;;;5117594;27;20079;-63
2023/12/13 07:10:39;;;;;;;26.70;19.27;;;7.80;99.90;;;;;;5128938;27;20039;-63
2023/12/13 07:13:05;;;;;;;27.63;17.45;;;7.80;99.90;;;;;;5135551;27;20068;-63
2023/12/13 07:15:31;;;;;;;25.48;17.05;;;7.80;99.90;;;;;;5117364;27;20043;-63
2023/12/13 07:17:56;;;;;;;35.33;21.52;;;7.80;99.90;;;;;;5135045;27;20035;-63
2023/12/13 07:20:22;;;;;;;34.53;20.17;;;7.80;99.90;;;;;;5127968;27;20049;-63
2023/12/13 07:22:51;;;;;;;29.40;18.98;;;7.80;99.90;;;;;;5117713;27;20071;-63
2023/12/13 07:25:17;;;;;;;27.80;18.85;;;7.80;99.90;;;;;;5117563;27;20100;-63
2023/12/13 07:27:43;;;;;;;31.33;18.40;;;7.80;99.90;;;;;;5117895;27;20051;-62
2023/12/13 07:30:09;;;;;;;33.08;22.00;;;7.80;99.90;;;;;;5135325;27;20095;-63
2023/12/13 07:32:35;;;;;;;30.30;20.58;;;7.80;99.90;;;;;;5134867;27;20087;-62
2023/12/13 07:35:00;;;;;;;26.60;18.88;;;7.80;99.90;;;;;;5134644;27;20092;-62
2023/12/13 07:37:27;;;;;;;27.33;18.38;;;7.80;99.90;;;;;;5116537;27;20056;-62
2023/12/13 07:39:52;;;;;;;27.48;17.92;;;7.70;99.90;;;;;;5117486;27;20165;-63
2023/12/13 07:42:18;;;;;;;34.15;20.08;;;7.80;99.90;;;;;;5117024;27;20073;-63
2023/12/13 07:44:45;;;;;;;37.20;23.17;;;7.80;99.90;;;;;;5118263;27;20070;-62
2023/12/13 07:47:12;;;;;;;27.83;18.33;;;7.80;99.90;;;;;;5117370;27;20050;-62
2023/12/13 07:49:38;;;;;;;35.10;22.42;;;7.80;99.90;;;;;;5116789;27;20051;-62
2023/12/13 07:52:06;;;;;;;29.48;21.63;;;7.80;99.90;;;;;;5117151;27;20564;-62
2023/12/13 07:54:32;;;;;;;35.40;23.40;;;7.80;99.90;;;;;;5117104;27;20088;-62
2023/12/13 07:56:58;;;;;;;31.52;21.52;;;7.80;99.90;;;;;;5116808;27;20047;-62
2023/12/13 07:59:24;;;;;;;38.55;23.48;;;7.80;99.90;;;;;;5116490;27;20043;-62
2023/12/13 08:01:50;;;;;;;35.78;29.92;;;7.70;99.90;;;;;;5119356;27;20051;-62
2023/12/13 08:04:15;;;;;;;32.00;23.05;;;7.80;99.90;;;;;;5110215;27;20078;-62
2023/12/13 08:06:41;;;;;;;35.35;24.15;;;7.70;99.90;;;;;;5112022;27;20035;-63
2023/12/13 08:09:09;;;;;;;35.00;24.42;;;7.80;99.90;;;;;;5100327;27;20405;-62
2023/12/13 08:11:35;;;;;;;38.85;25.98;;;7.80;99.90;;;;;;5116448;27;20051;-63
2023/12/13 08:14:01;;;;;;;34.15;23.55;;;7.80;99.90;;;;;;5116856;27;20092;-63
2023/12/13 08:16:27;;;;;;;42.92;29.67;;;7.90;99.90;;;;;;5116546;27;20394;-63
2023/12/13 08:18:54;;;;;;;28.23;20.88;;;7.80;99.90;;;;;;5116337;27;20118;-62
2023/12/13 08:21:24;;;;;;;36.00;21.08;;;7.80;99.90;;;;;;5116922;27;20043;-63
2023/12/13 08:23:50;;;;;;;35.15;22.42;;;7.80;99.90;;;;;;5116755;27;20047;-62
2023/12/13 08:26:16;;;;;;;30.00;20.30;;;7.80;99.90;;;;;;5118656;27;20054;-62
2023/12/13 08:28:42;;;;;;;29.23;21.02;;;7.80;99.90;;;;;;5120022;27;20404;-63
2023/12/13 08:31:10;;;;;;;35.08;22.98;;;7.90;99.90;;;;;;5099281;27;20046;-63
2023/12/13 08:33:35;;;;;;;35.97;25.83;;;7.80;99.90;;;;;;5118032;27;20438;-62
2023/12/13 08:36:04;;;;;;;38.50;23.02;;;7.80;99.90;;;;;;5116863;27;20039;-62
2023/12/13 08:38:30;;;;;;;36.55;23.90;;;7.80;99.90;;;;;;5099318;27;20097;-63
2023/12/13 08:40:56;;;;;;;34.15;19.98;;;7.90;99.90;;;;;;5116402;27;20479;-62
2023/12/13 08:43:21;;;;;;;35.55;22.90;;;7.90;99.90;;;;;;5116110;27;20047;-63
2023/12/13 08:45:47;;;;;;;31.98;19.98;;;7.80;99.90;;;;;;5127247;27;20478;-63
2023/12/13 08:48:13;;;;;;;31.23;19.17;;;7.80;99.90;;;;;;5099056;27;20134;-62
2023/12/13 08:50:40;;;;;;;27.65;17.48;;;7.90;99.90;;;;;;5116191;27;20043;-62
2023/12/13 08:53:05;;;;;;;30.15;20.00;;;7.90;99.90;;;;;;5115963;27;20095;-63
2023/12/13 08:55:31;;;;;;;34.38;21.25;;;7.90;99.90;;;;;;5115393;27;20043;-63
2023/12/13 08:57:56;;;;;;;29.15;19.30;;;7.90;99.90;;;;;;5118501;27;20039;-63
2023/12/13 09:00:23;;;;;;;27.00;17.33;;;7.90;99.90;;;;;;5132371;27;20055;-63
2023/12/13 09:02:48;;;;;;;35.95;18.48;;;8.00;99.90;;;;;;5132744;27;20122;-62
2023/12/13 09:05:14;;;;;;;30.15;19.55;;;8.00;99.90;;;;;;5133117;27;20555;-61
2023/12/13 09:07:40;;;;;;;29.35;18.58;;;8.00;99.90;;;;;;5132653;27;20492;-61
2023/12/13 09:10:08;;;;;;;26.20;17.80;;;8.00;99.90;;;;;;5133072;27;20054;-62
2023/12/13 09:12:34;;;;;;;34.92;19.58;;;8.00;99.90;;;;;;5112593;27;20395;-62
2023/12/13 09:14:59;;;;;;;28.90;18.25;;;8.00;99.90;;;;;;5115697;27;20039;-62
2023/12/13 09:17:25;;;;;;;34.60;22.65;;;8.00;99.90;;;;;;5115471;27;20047;-61
2023/12/13 09:19:51;;;;;;;51.15;24.73;;;8.00;99.90;;;;;;5115668;27;20039;-61
2023/12/13 09:22:17;;;;;;;421.83;188.98;;;8.00;99.90;;;;;;5115229;27;20043;-61
2023/12/13 09:24:43;;;;;;;92.10;42.28;;;8.00;99.90;;;;;;5133952;27;20118;-61
2023/12/13 09:27:09;;;;;;;48.28;26.92;;;8.10;99.90;;;;;;5115538;27;20165;-61
2023/12/13 09:29:35;;;;;;;37.10;21.83;;;8.00;99.90;;;;;;5107402;28;20054;-61
2023/12/13 09:32:00;;;;;;;35.35;20.42;;;8.10;99.90;;;;;;5117238;27;20343;-61
2023/12/13 09:34:26;;;;;;;41.40;20.67;;;8.00;99.90;;;;;;5112880;27;20491;-61
2023/12/13 09:36:52;;;;;;;33.35;20.52;;;8.10;99.90;;;;;;5118576;27;20122;-61
2023/12/13 09:39:18;;;;;;;38.55;21.00;;;8.10;99.90;;;;;;5129799;27;20174;-61
2023/12/13 09:41:58;;;;;;;43.22;23.30;;;8.20;99.90;;;;;;5131235;27;20046;-61
2023/12/13 09:44:25;;;;;;;42.47;26.88;;;8.20;99.90;;;;;;5129100;27;20035;-61
2023/12/13 09:46:53;;;;;;;34.03;22.73;;;8.20;99.90;;;;;;5112959;27;20063;-61
2023/12/13 09:49:23;;;;;;;50.78;33.47;;;8.20;99.90;;;;;;5112252;27;20047;-61
2023/12/13 09:51:49;;;;;;;44.13;28.77;;;8.20;99.90;;;;;;5112769;27;20065;-61
2023/12/13 09:54:15;;;;;;;43.10;24.63;;;8.30;99.90;;;;;;5121508;27;20067;-60
2023/12/13 09:56:41;;;;;;;29.92;19.13;;;8.20;99.90;;;;;;5109010;27;20047;-61
2023/12/13 09:59:06;;;;;;;42.40;26.00;;;8.30;99.90;;;;;;5112543;27;20043;-61
2023/12/13 10:01:32;;;;;;;42.10;25.92;;;8.20;99.90;;;;;;5112256;27;20193;-60
2023/12/13 10:03:58;;;;;;;43.13;28.17;;;8.20;99.90;;;;;;5112488;27;20058;-61
2023/12/13 10:06:24;;;;;;;36.67;24.63;;;8.30;99.90;;;;;;5112128;27;20047;-60
2023/12/13 10:09:01;;;;;;;38.10;24.33;;;8.30;99.90;;;;;;5112626;27;20039;-60
2023/12/13 10:11:27;;;;;;;36.72;22.73;;;8.30;99.90;;;;;;5109688;27;20050;-60
2023/12/13 10:13:53;;;;;;;36.72;22.95;;;8.30;99.90;;;;;;5112389;27;20379;-61
2023/12/13 10:16:19;;;;;;;36.38;21.73;;;8.30;99.90;;;;;;5111973;27;20039;-61
2023/12/13 10:18:46;;;;;;;44.30;27.08;;;8.30;99.90;;;;;;5110978;28;20468;-61
2023/12/13 10:21:13;;;;;;;50.67;33.13;;;8.30;99.90;;;;;;5112404;28;20047;-61
2023/12/13 10:23:43;;;;;;;45.78;30.17;;;8.40;99.90;;;;;;5129408;27;20039;-61
2023/12/13 10:26:09;;;;;;;36.28;21.65;;;8.40;99.90;;;;;;5128487;27;20043;-61
2023/12/13 10:28:36;;;;;;;32.90;21.65;;;8.40;99.90;;;;;;5129438;27;20043;-61
2023/12/13 10:31:02;;;;;;;38.75;21.70;;;8.40;99.90;;;;;;5118999;28;20039;-61
2023/12/13 10:33:28;;;;;;;34.50;18.05;;;8.50;99.90;;;;;;5112189;28;20054;-61
2023/12/13 10:35:56;;;;;;;35.45;21.65;;;8.40;99.90;;;;;;5111915;28;20047;-61
2023/12/13 10:38:25;;;;;;;35.53;20.88;;;8.50;99.90;;;;;;5111939;28;20084;-61
2023/12/13 10:40:51;;;;;;;33.20;20.85;;;8.50;99.90;;;;;;5111793;28;20039;-61
2023/12/13 10:43:18;;;;;;;33.90;21.20;;;8.60;99.90;;;;;;5130449;28;20210;-61
2023/12/13 10:45:53;;;;;;;41.67;22.70;;;8.60;99.90;;;;;;5111506;28;20083;-62
2023/12/13 10:48:23;;;;;;;37.97;21.52;;;8.60;99.90;;;;;;5094792;28;20659;-61
2023/12/13 10:50:50;;;;;;;34.97;19.92;;;8.60;99.90;;;;;;5126121;28;20118;-61
2023/12/13 10:53:18;;;;;;;36.97;20.35;;;8.60;99.90;;;;;;5128256;28;20084;-61
2023/12/13 10:55:45;;;;;;;51.40;23.83;;;8.60;99.90;;;;;;5128794;28;20043;-62
2023/12/13 10:58:12;;;;;;;36.92;17.23;;;8.60;99.90;;;;;;5124850;28;20047;-62
2023/12/13 11:00:39;;;;;;;47.78;22.73;;;8.60;99.90;;;;;;5108940;28;20139;-62
2023/12/13 11:03:14;;;;;;;46.35;23.13;;;8.60;99.90;;;;;;5112219;28;20039;-62
2023/12/13 11:05:40;;;;;;;28.52;14.70;;;8.70;99.90;;;;;;5111903;28;20039;-62
2023/12/13 11:08:17;;;;;;;27.40;14.20;;;8.70;99.90;;;;;;5111634;28;20035;-62
2023/12/13 11:11:03;;;;;;;34.15;13.80;;;8.70;99.90;;;;;;5111565;28;20039;-62
2023/12/13 11:13:29;;;;;;;31.20;14.68;;;8.70;99.90;;;;;;5111372;28;20051;-62
2023/12/13 11:15:55;;;;;;;33.45;16.48;;;8.70;99.90;;;;;;5111674;28;20484;-62
2023/12/13 11:18:23;;;;;;;31.85;15.63;;;8.70;99.90;;;;;;5111492;28;20061;-62
2023/12/13 11:20:58;;;;;;;112.22;47.78;;;8.60;99.90;;;;;;5129559;28;20135;-62
2023/12/13 11:23:27;;;;;;;50.38;28.50;;;8.70;99.90;;;;;;5111727;28;20054;-63
2023/12/13 11:25:56;;;;;;;41.30;23.58;;;8.60;99.90;;;;;;5112128;27;20042;-62
2023/12/13 11:28:23;;;;;;;37.45;21.08;;;8.60;99.90;;;;;;5111547;27;20060;-62
2023/12/13 11:30:50;;;;;;;46.90;25.20;;;8.60;99.90;;;;;;5101662;28;20035;-63
2023/12/13 11:33:17;;;;;;;54.22;34.92;;;8.60;99.90;;;;;;5112432;27;20053;-62
2023/12/13 11:35:45;;;;;;;39.00;23.35;;;8.50;99.90;;;;;;5115139;27;20500;-63
2023/12/13 11:38:12;;;;;;;39.17;19.67;;;8.60;99.90;;;;;;5133654;27;20130;-62
2023/12/13 11:40:40;;;;;;;37.67;22.10;;;8.50;99.90;;;;;;5114858;27;20100;-61
2023/12/13 11:43:05;;;;;;;35.53;18.23;;;8.60;99.90;;;;;;5114848;27;20086;-63
2023/12/13 11:45:31;;;;;;;33.05;18.75;;;8.50;99.90;;;;;;5114882;27;20557;-65
2023/12/13 11:48:01;;;;;;;39.47;19.67;;;8.60;99.90;;;;;;5133863;27;20437;-64
2023/12/13 11:50:27;;;;;;;37.10;20.73;;;8.50;99.90;;;;;;5114553;27;20426;-64
2023/12/13 11:52:52;;;;;;;37.83;20.95;;;8.60;99.90;;;;;;5116073;27;20053;-63
2023/12/13 11:55:21;;;;;;;38.63;19.23;;;8.50;99.90;;;;;;5115415;27;20484;-63
2023/12/13 11:57:49;;;;;;;38.25;20.90;;;8.60;99.90;;;;;;5103310;27;20046;-62
2023/12/13 12:00:19;;;;;;;40.70;19.42;;;8.50;99.90;;;;;;5118511;27;20483;-62
2023/12/13 12:02:45;;;;;;;45.67;21.60;;;8.50;99.90;;;;;;5113321;27;20043;-62
2023/12/13 12:05:13;;;;;;;38.25;20.27;;;8.50;99.90;;;;;;5113710;27;20050;-62
2023/12/13 12:07:38;;;;;;;41.13;19.77;;;8.50;99.90;;;;;;5132660;27;20035;-62
2023/12/13 12:10:05;;;;;;;37.40;18.50;;;8.50;99.90;;;;;;5131775;27;20053;-62
2023/12/13 12:12:31;;;;;;;36.53;17.27;;;8.50;99.90;;;;;;5123655;27;20050;-62
2023/12/13 12:14:56;;;;;;;34.35;18.60;;;8.50;99.90;;;;;;5115143;27;20031;-62
2023/12/13 12:17:23;;;;;;;45.72;20.92;;;8.50;99.90;;;;;;5113481;27;20043;-62
2023/12/13 12:19:51;;;;;;;32.33;16.75;;;8.50;99.90;;;;;;5114096;27;20088;-63
2023/12/13 12:22:18;;;;;;;34.90;18.67;;;8.50;99.90;;;;;;5114463;27;20043;-63
2023/12/13 12:24:49;;;;;;;36.10;15.77;;;8.60;99.90;;;;;;5120569;27;20069;-62
2023/12/13 12:27:15;;;;;;;37.60;17.80;;;8.60;99.90;;;;;;5131109;27;20496;-62
2023/12/13 12:29:40;;;;;;;30.15;14.95;;;8.50;99.90;;;;;;5113702;27;20080;-62
2023/12/13 12:32:11;;;;;;;32.75;16.63;;;8.60;99.90;;;;;;5113704;27;20410;-62